Terminal Aerodrome Forecast
Issued by NWS

Home | Current Version | Previous Version | Text Only | Print | Product List | Glossary On
Versions: 1 2 3 4 5 6 7 8 9 10 11 12 13 14 15
900
FTUS42 KTAE 111214 AAA
TAFECP
TAF AMD
KECP 111214Z 1112/1212 06007KT P6SM BKN025
     FM111500 11006KT P6SM BKN035
     FM120300 12006KT 4SM BR OVC025
     FM120900 00000KT 1SM BR OVC004=

USA.gov is the U.S. government's official web portal to all federal, state and local government web resources and services.